METAR Data
IDs: Format: Raw Decoded Include TAF

Data at: 0906 UTC 26 Jan 2020

METAR for:KFPK (Charotte/Beach Fld, MI, US)
Text:KFPK 260855Z AUTO 25008KT 2 1/2SM BR OVC003 01/00 A2981 RMK AO2 T00100002
Temperature: 1.0°C ( 34°F)
Dewpoint: 0.2°C ( 32°F) [RH = 94%]
Pressure (altimeter):29.81 inches Hg (1009.6 mb)
Winds:from the WSW (250 degrees) at 9 MPH (8 knots; 4.1 m/s)
Visibility: 2.50 sm ( 4.02 km)
Ceiling:300 feet AGL
Clouds: overcast cloud deck at 300 feet AGL
Weather:BR (mist)
QC Flag:automated observation with no human augmentation

TAF for:KFPK (Charotte/Beach Fld, MI, US)
Text:No data found

METAR for:KLAN (Lansing/Capital City, MI, US)
Text:KLAN 260853Z 25010KT 7SM OVC005 01/00 A2981 RMK AO2 SLP103 T00060000 53006
Temperature: 0.6°C ( 33°F)
Dewpoint: 0.0°C ( 32°F) [RH = 96%]
Pressure (altimeter):29.81 inches Hg (1009.6 mb) [Sea level pressure: 1010.3 mb]
Winds:from the WSW (250 degrees) at 12 MPH (10 knots; 5.1 m/s)
Visibility: 7 sm ( 11 km)
Ceiling:500 feet AGL
Clouds: overcast cloud deck at 500 feet AGL

TAF for:KLAN (Lansing/Capital City, MI, US) issued at 0832 UTC 26 Jan 2020
Text:KLAN 260832Z 2609/2706 25010KT 4SM BR OVC003
Forecast period:0900 to 1000 UTC 26 January 2020
Forecast type:FROM: standard forecast or significant change
Winds:from the WSW (250 degrees) at 12 MPH (10 knots; 5.1 m/s)
Visibility: 4 sm ( 6 km)
Ceiling:300 feet AGL
Clouds: overcast cloud deck at 300 feet AGL
Weather:BR (mist)
Text:FM261000 25008KT P6SM OVC005
Forecast period:1000 to 1200 UTC 26 January 2020
Forecast type:FROM: standard forecast or significant change
Winds:from the WSW (250 degrees) at 9 MPH (8 knots; 4.1 m/s)
Visibility:6 or more sm (10+ km)
Ceiling:500 feet AGL
Clouds: overcast cloud deck at 500 feet AGL
Text:FM261200 25009KT 4SM BR OVC004
Forecast period:1200 to 2100 UTC 26 January 2020
Forecast type:FROM: standard forecast or significant change
Winds:from the WSW (250 degrees) at 10 MPH (9 knots; 4.6 m/s)
Visibility: 4 sm ( 6 km)
Ceiling:400 feet AGL
Clouds: overcast cloud deck at 400 feet AGL
Weather:BR (mist)
Text:FM262100 27011KT 5SM BR OVC009
Forecast period:2100 UTC 26 January 2020 to 0000 UTC 27 January 2020
Forecast type:FROM: standard forecast or significant change
Winds:from the W (270 degrees) at 13 MPH (11 knots; 5.7 m/s)
Visibility: 5 sm ( 8 km)
Ceiling:900 feet AGL
Clouds: overcast cloud deck at 900 feet AGL
Weather:BR (mist)
Text:FM270000 26009KT 1 1/2SM -SN BR OVC003
Forecast period:0000 to 0600 UTC 27 January 2020
Forecast type:FROM: standard forecast or significant change
Winds:from the W (260 degrees) at 10 MPH (9 knots; 4.6 m/s)
Visibility: 1.50 sm ( 2.41 km)
Ceiling:300 feet AGL
Clouds: overcast cloud deck at 300 feet AGL
Weather:-SN BR (light snow, mist)